sensor_id;sensor_type;location;lat;lon;timestamp;temperature;humidity
4687;DHT22;2357;47.316;-1.348;2022-09-06T00:00:34;20.70;99.90
4687;DHT22;2357;47.316;-1.348;2022-09-06T00:03:00;20.70;99.90
4687;DHT22;2357;47.316;-1.348;2022-09-06T00:05:29;20.70;99.90
4687;DHT22;2357;47.316;-1.348;2022-09-06T00:07:59;20.60;99.90
4687;DHT22;2357;47.316;-1.348;2022-09-06T00:10:27;20.60;99.90
4687;DHT22;2357;47.316;-1.348;2022-09-06T00:12:53;20.60;99.90
4687;DHT22;2357;47.316;-1.348;2022-09-06T00:15:19;20.50;99.90
4687;DHT22;2357;47.316;-1.348;2022-09-06T00:17:46;20.60;99.90
4687;DHT22;2357;47.316;-1.348;2022-09-06T00:20:13;20.50;99.90
4687;DHT22;2357;47.316;-1.348;2022-09-06T00:22:39;20.50;99.90
4687;DHT22;2357;47.316;-1.348;2022-09-06T00:25:05;20.50;99.90
4687;DHT22;2357;47.316;-1.348;2022-09-06T00:27:31;20.50;99.90
4687;DHT22;2357;47.316;-1.348;2022-09-06T00:29:57;20.40;99.90
4687;DHT22;2357;47.316;-1.348;2022-09-06T00:32:23;20.40;99.90
4687;DHT22;2357;47.316;-1.348;2022-09-06T00:34:49;20.30;99.90
4687;DHT22;2357;47.316;-1.348;2022-09-06T00:37:14;20.20;99.90
4687;DHT22;2357;47.316;-1.348;2022-09-06T00:39:40;20.10;99.90
4687;DHT22;2357;47.316;-1.348;2022-09-06T00:42:10;20.10;99.90
4687;DHT22;2357;47.316;-1.348;2022-09-06T00:44:36;20.10;99.90
4687;DHT22;2357;47.316;-1.348;2022-09-06T00:47:02;20.20;99.90
4687;DHT22;2357;47.316;-1.348;2022-09-06T00:49:31;20.20;99.90
4687;DHT22;2357;47.316;-1.348;2022-09-06T00:52:08;20.20;99.90
4687;DHT22;2357;47.316;-1.348;2022-09-06T00:54:35;20.20;99.90
4687;DHT22;2357;47.316;-1.348;2022-09-06T00:57:01;20.10;99.90
4687;DHT22;2357;47.316;-1.348;2022-09-06T00:59:29;20.10;99.90
4687;DHT22;2357;47.316;-1.348;2022-09-06T01:01:56;20.10;99.90
4687;DHT22;2357;47.316;-1.348;2022-09-06T01:04:22;20.10;99.90
4687;DHT22;2357;47.316;-1.348;2022-09-06T01:29:15;19.80;99.90
4687;DHT22;2357;47.316;-1.348;2022-09-06T01:31:51;19.80;99.90
4687;DHT22;2357;47.316;-1.348;2022-09-06T01:34:41;19.80;99.90
4687;DHT22;2357;47.316;-1.348;2022-09-06T01:37:11;19.80;99.90
4687;DHT22;2357;47.316;-1.348;2022-09-06T01:39:39;19.70;99.90
4687;DHT22;2357;47.316;-1.348;2022-09-06T01:42:26;19.80;99.90
4687;DHT22;2357;47.316;-1.348;2022-09-06T01:45:04;19.80;99.90
4687;DHT22;2357;47.316;-1.348;2022-09-06T02:01:04;19.70;99.90
4687;DHT22;2357;47.316;-1.348;2022-09-06T02:06:28;19.70;99.90
4687;DHT22;2357;47.316;-1.348;2022-09-06T02:09:02;19.70;99.90
4687;DHT22;2357;47.316;-1.348;2022-09-06T02:11:33;19.70;99.90
4687;DHT22;2357;47.316;-1.348;2022-09-06T02:14:05;19.70;99.90
4687;DHT22;2357;47.316;-1.348;2022-09-06T02:16:37;19.70;99.90
4687;DHT22;2357;47.316;-1.348;2022-09-06T02:19:16;19.60;99.90
4687;DHT22;2357;47.316;-1.348;2022-09-06T02:21:44;19.60;99.90
4687;DHT22;2357;47.316;-1.348;2022-09-06T02:24:18;19.60;99.90
4687;DHT22;2357;47.316;-1.348;2022-09-06T02:26:45;19.60;99.90
4687;DHT22;2357;47.316;-1.348;2022-09-06T02:29:12;19.70;99.90
4687;DHT22;2357;47.316;-1.348;2022-09-06T02:31:58;19.60;99.90
4687;DHT22;2357;47.316;-1.348;2022-09-06T02:34:25;19.50;99.90
4687;DHT22;2357;47.316;-1.348;2022-09-06T02:36:51;19.50;99.90
4687;DHT22;2357;47.316;-1.348;2022-09-06T02:39:18;19.40;99.90
4687;DHT22;2357;47.316;-1.348;2022-09-06T02:41:45;19.40;99.90
4687;DHT22;2357;47.316;-1.348;2022-09-06T02:44:13;19.40;99.90
4687;DHT22;2357;47.316;-1.348;2022-09-06T02:46:39;19.50;99.90
4687;DHT22;2357;47.316;-1.348;2022-09-06T02:49:05;19.40;99.90
4687;DHT22;2357;47.316;-1.348;2022-09-06T02:51:35;19.40;99.90
4687;DHT22;2357;47.316;-1.348;2022-09-06T02:54:01;19.50;99.90
4687;DHT22;2357;47.316;-1.348;2022-09-06T02:56:27;19.50;99.90
4687;DHT22;2357;47.316;-1.348;2022-09-06T02:58:53;19.40;99.90
4687;DHT22;2357;47.316;-1.348;2022-09-06T03:01:18;19.30;99.90
4687;DHT22;2357;47.316;-1.348;2022-09-06T03:03:44;19.40;99.90
4687;DHT22;2357;47.316;-1.348;2022-09-06T03:06:09;19.50;99.90
4687;DHT22;2357;47.316;-1.348;2022-09-06T03:08:35;19.50;99.90
4687;DHT22;2357;47.316;-1.348;2022-09-06T03:11:01;19.40;99.90
4687;DHT22;2357;47.316;-1.348;2022-09-06T03:13:27;19.40;99.90
4687;DHT22;2357;47.316;-1.348;2022-09-06T03:15:55;19.40;99.90
4687;DHT22;2357;47.316;-1.348;2022-09-06T03:18:23;19.20;99.90
4687;DHT22;2357;47.316;-1.348;2022-09-06T03:20:53;19.20;99.90
4687;DHT22;2357;47.316;-1.348;2022-09-06T03:23:21;19.20;99.90
4687;DHT22;2357;47.316;-1.348;2022-09-06T03:25:48;19.20;99.90
4687;DHT22;2357;47.316;-1.348;2022-09-06T03:28:13;19.30;99.90
4687;DHT22;2357;47.316;-1.348;2022-09-06T03:30:39;19.20;99.90
4687;DHT22;2357;47.316;-1.348;2022-09-06T03:33:05;19.20;99.90
4687;DHT22;2357;47.316;-1.348;2022-09-06T03:35:31;19.30;99.90
4687;DHT22;2357;47.316;-1.348;2022-09-06T03:37:57;19.10;99.90
4687;DHT22;2357;47.316;-1.348;2022-09-06T03:40:22;19.20;99.90
4687;DHT22;2357;47.316;-1.348;2022-09-06T03:42:48;19.20;99.90
4687;DHT22;2357;47.316;-1.348;2022-09-06T03:45:14;19.20;99.90
4687;DHT22;2357;47.316;-1.348;2022-09-06T03:47:39;19.10;99.90
4687;DHT22;2357;47.316;-1.348;2022-09-06T03:50:06;19.20;99.90
4687;DHT22;2357;47.316;-1.348;2022-09-06T03:52:32;19.20;99.90
4687;DHT22;2357;47.316;-1.348;2022-09-06T03:54:57;19.10;99.90
4687;DHT22;2357;47.316;-1.348;2022-09-06T03:57:23;19.10;99.90
4687;DHT22;2357;47.316;-1.348;2022-09-06T03:59:49;19.20;99.90
4687;DHT22;2357;47.316;-1.348;2022-09-06T04:02:14;19.00;99.90
4687;DHT22;2357;47.316;-1.348;2022-09-06T04:04:40;19.00;99.90
4687;DHT22;2357;47.316;-1.348;2022-09-06T04:07:05;19.00;99.90
4687;DHT22;2357;47.316;-1.348;2022-09-06T04:09:31;18.90;99.90
4687;DHT22;2357;47.316;-1.348;2022-09-06T04:11:57;19.00;99.90
4687;DHT22;2357;47.316;-1.348;2022-09-06T04:14:22;18.90;99.90
4687;DHT22;2357;47.316;-1.348;2022-09-06T04:16:48;18.90;99.90
4687;DHT22;2357;47.316;-1.348;2022-09-06T04:19:14;18.90;99.90
4687;DHT22;2357;47.316;-1.348;2022-09-06T04:21:40;18.90;99.90
4687;DHT22;2357;47.316;-1.348;2022-09-06T04:24:06;18.90;99.90
4687;DHT22;2357;47.316;-1.348;2022-09-06T04:26:32;18.80;99.90
4687;DHT22;2357;47.316;-1.348;2022-09-06T04:28:57;18.70;99.90
4687;DHT22;2357;47.316;-1.348;2022-09-06T04:31:23;18.80;99.90
4687;DHT22;2357;47.316;-1.348;2022-09-06T04:33:48;18.90;99.90
4687;DHT22;2357;47.316;-1.348;2022-09-06T04:36:14;18.90;99.90
4687;DHT22;2357;47.316;-1.348;2022-09-06T04:38:42;18.90;99.90
4687;DHT22;2357;47.316;-1.348;2022-09-06T04:41:13;18.90;99.90
4687;DHT22;2357;47.316;-1.348;2022-09-06T04:43:40;18.90;99.90
4687;DHT22;2357;47.316;-1.348;2022-09-06T04:48:38;19.00;99.90
4687;DHT22;2357;47.316;-1.348;2022-09-06T04:51:03;19.00;99.90
4687;DHT22;2357;47.316;-1.348;2022-09-06T04:53:29;19.00;99.90
4687;DHT22;2357;47.316;-1.348;2022-09-06T04:55:56;18.90;99.90
4687;DHT22;2357;47.316;-1.348;2022-09-06T04:58:22;18.90;99.90
4687;DHT22;2357;47.316;-1.348;2022-09-06T05:00:48;19.00;99.90
4687;DHT22;2357;47.316;-1.348;2022-09-06T05:03:13;18.90;99.90
4687;DHT22;2357;47.316;-1.348;2022-09-06T05:05:39;19.00;99.90
4687;DHT22;2357;47.316;-1.348;2022-09-06T05:08:05;18.90;99.90
4687;DHT22;2357;47.316;-1.348;2022-09-06T05:10:31;19.00;99.90
4687;DHT22;2357;47.316;-1.348;2022-09-06T05:12:56;19.00;99.90
4687;DHT22;2357;47.316;-1.348;2022-09-06T05:15:22;19.00;99.90
4687;DHT22;2357;47.316;-1.348;2022-09-06T05:17:48;19.00;99.90
4687;DHT22;2357;47.316;-1.348;2022-09-06T05:20:14;19.00;99.90
4687;DHT22;2357;47.316;-1.348;2022-09-06T05:22:40;19.10;99.90
4687;DHT22;2357;47.316;-1.348;2022-09-06T05:25:07;19.10;99.90
4687;DHT22;2357;47.316;-1.348;2022-09-06T05:27:33;19.10;99.90
4687;DHT22;2357;47.316;-1.348;2022-09-06T05:29:59;19.10;99.90
4687;DHT22;2357;47.316;-1.348;2022-09-06T05:32:25;19.00;99.90
4687;DHT22;2357;47.316;-1.348;2022-09-06T05:34:50;19.10;99.90
4687;DHT22;2357;47.316;-1.348;2022-09-06T05:37:16;19.10;99.90
4687;DHT22;2357;47.316;-1.348;2022-09-06T05:39:42;19.20;99.90
4687;DHT22;2357;47.316;-1.348;2022-09-06T05:42:07;19.10;99.90
4687;DHT22;2357;47.316;-1.348;2022-09-06T05:44:34;19.20;99.90
4687;DHT22;2357;47.316;-1.348;2022-09-06T05:47:00;19.20;99.90
4687;DHT22;2357;47.316;-1.348;2022-09-06T05:49:28;19.30;99.90
4687;DHT22;2357;47.316;-1.348;2022-09-06T05:51:53;19.40;99.90
4687;DHT22;2357;47.316;-1.348;2022-09-06T05:54:19;19.40;99.90
4687;DHT22;2357;47.316;-1.348;2022-09-06T05:56:45;19.40;99.90
4687;DHT22;2357;47.316;-1.348;2022-09-06T05:59:10;19.30;99.90
4687;DHT22;2357;47.316;-1.348;2022-09-06T06:01:36;19.40;99.90
4687;DHT22;2357;47.316;-1.348;2022-09-06T06:04:05;19.30;99.90
4687;DHT22;2357;47.316;-1.348;2022-09-06T06:06:33;19.20;99.90
4687;DHT22;2357;47.316;-1.348;2022-09-06T06:08:59;19.30;99.90
4687;DHT22;2357;47.316;-1.348;2022-09-06T06:11:25;19.30;99.90
4687;DHT22;2357;47.316;-1.348;2022-09-06T06:13:52;19.40;99.90
4687;DHT22;2357;47.316;-1.348;2022-09-06T06:16:19;19.40;99.90
4687;DHT22;2357;47.316;-1.348;2022-09-06T06:18:46;19.40;99.90
4687;DHT22;2357;47.316;-1.348;2022-09-06T06:21:18;19.40;99.90
4687;DHT22;2357;47.316;-1.348;2022-09-06T06:23:47;19.40;99.90
4687;DHT22;2357;47.316;-1.348;2022-09-06T06:26:14;19.30;99.90
4687;DHT22;2357;47.316;-1.348;2022-09-06T06:28:40;19.40;99.90
4687;DHT22;2357;47.316;-1.348;2022-09-06T06:31:07;19.50;99.90
4687;DHT22;2357;47.316;-1.348;2022-09-06T06:33:33;19.50;99.90
4687;DHT22;2357;47.316;-1.348;2022-09-06T06:36:06;19.50;99.90
4687;DHT22;2357;47.316;-1.348;2022-09-06T06:38:36;19.50;99.90
4687;DHT22;2357;47.316;-1.348;2022-09-06T06:41:02;19.60;99.90
4687;DHT22;2357;47.316;-1.348;2022-09-06T06:43:28;19.60;99.90
4687;DHT22;2357;47.316;-1.348;2022-09-06T06:46:10;19.60;99.90
4687;DHT22;2357;47.316;-1.348;2022-09-06T06:48:37;19.60;99.90
4687;DHT22;2357;47.316;-1.348;2022-09-06T06:51:07;19.70;99.90
4687;DHT22;2357;47.316;-1.348;2022-09-06T06:53:32;19.70;99.90
4687;DHT22;2357;47.316;-1.348;2022-09-06T06:55:59;19.70;99.90
4687;DHT22;2357;47.316;-1.348;2022-09-06T06:58:25;19.80;99.90
4687;DHT22;2357;47.316;-1.348;2022-09-06T07:00:51;19.90;99.90
4687;DHT22;2357;47.316;-1.348;2022-09-06T07:03:16;20.00;99.90
4687;DHT22;2357;47.316;-1.348;2022-09-06T07:05:43;19.90;99.90
4687;DHT22;2357;47.316;-1.348;2022-09-06T07:08:09;19.90;99.90
4687;DHT22;2357;47.316;-1.348;2022-09-06T07:10:35;19.90;99.90
4687;DHT22;2357;47.316;-1.348;2022-09-06T07:13:00;19.90;99.90
4687;DHT22;2357;47.316;-1.348;2022-09-06T07:15:26;19.90;99.90
4687;DHT22;2357;47.316;-1.348;2022-09-06T07:17:55;19.90;99.90
4687;DHT22;2357;47.316;-1.348;2022-09-06T07:20:21;19.80;99.90
4687;DHT22;2357;47.316;-1.348;2022-09-06T07:22:58;19.90;99.90
4687;DHT22;2357;47.316;-1.348;2022-09-06T07:25:24;20.00;99.90
4687;DHT22;2357;47.316;-1.348;2022-09-06T07:28:03;20.10;99.90
4687;DHT22;2357;47.316;-1.348;2022-09-06T07:30:36;20.20;99.90
4687;DHT22;2357;47.316;-1.348;2022-09-06T07:33:04;20.40;99.90
4687;DHT22;2357;47.316;-1.348;2022-09-06T07:35:30;20.60;99.90
4687;DHT22;2357;47.316;-1.348;2022-09-06T07:37:58;20.70;99.90
4687;DHT22;2357;47.316;-1.348;2022-09-06T07:40:25;20.90;99.90
4687;DHT22;2357;47.316;-1.348;2022-09-06T07:42:51;21.10;99.90
4687;DHT22;2357;47.316;-1.348;2022-09-06T07:45:17;21.30;99.90
4687;DHT22;2357;47.316;-1.348;2022-09-06T07:47:43;21.50;99.90
4687;DHT22;2357;47.316;-1.348;2022-09-06T07:50:10;21.60;99.90
4687;DHT22;2357;47.316;-1.348;2022-09-06T07:52:35;21.60;99.90
4687;DHT22;2357;47.316;-1.348;2022-09-06T07:55:01;21.60;99.90
4687;DHT22;2357;47.316;-1.348;2022-09-06T07:57:26;21.60;99.90
4687;DHT22;2357;47.316;-1.348;2022-09-06T07:59:52;21.60;99.90
4687;DHT22;2357;47.316;-1.348;2022-09-06T08:02:18;21.80;99.90
4687;DHT22;2357;47.316;-1.348;2022-09-06T08:04:44;21.80;99.90
4687;DHT22;2357;47.316;-1.348;2022-09-06T08:07:09;21.90;99.90
4687;DHT22;2357;47.316;-1.348;2022-09-06T08:09:35;22.10;99.90
4687;DHT22;2357;47.316;-1.348;2022-09-06T08:12:02;22.10;99.90
4687;DHT22;2357;47.316;-1.348;2022-09-06T08:14:31;22.20;99.90
4687;DHT22;2357;47.316;-1.348;2022-09-06T08:16:57;22.30;99.90
4687;DHT22;2357;47.316;-1.348;2022-09-06T08:19:23;22.50;99.90
4687;DHT22;2357;47.316;-1.348;2022-09-06T08:21:49;22.60;99.90
4687;DHT22;2357;47.316;-1.348;2022-09-06T08:24:18;22.80;99.90
4687;DHT22;2357;47.316;-1.348;2022-09-06T08:26:43;22.90;99.90
4687;DHT22;2357;47.316;-1.348;2022-09-06T08:29:09;22.90;99.90
4687;DHT22;2357;47.316;-1.348;2022-09-06T08:31:37;22.80;99.90
4687;DHT22;2357;47.316;-1.348;2022-09-06T08:34:03;22.80;99.90
4687;DHT22;2357;47.316;-1.348;2022-09-06T08:36:29;22.60;99.90
4687;DHT22;2357;47.316;-1.348;2022-09-06T08:38:56;22.60;99.90
4687;DHT22;2357;47.316;-1.348;2022-09-06T08:44:03;22.60;99.90
4687;DHT22;2357;47.316;-1.348;2022-09-06T08:46:36;22.60;99.90
4687;DHT22;2357;47.316;-1.348;2022-09-06T08:49:06;22.60;99.90
4687;DHT22;2357;47.316;-1.348;2022-09-06T08:51:53;22.60;99.90
4687;DHT22;2357;47.316;-1.348;2022-09-06T08:54:40;22.60;99.90
4687;DHT22;2357;47.316;-1.348;2022-09-06T08:57:21;22.70;99.90
4687;DHT22;2357;47.316;-1.348;2022-09-06T08:59:56;22.70;99.90
4687;DHT22;2357;47.316;-1.348;2022-09-06T09:02:23;22.80;99.90
4687;DHT22;2357;47.316;-1.348;2022-09-06T09:04:51;22.90;99.90
4687;DHT22;2357;47.316;-1.348;2022-09-06T09:09:58;22.80;99.90
4687;DHT22;2357;47.316;-1.348;2022-09-06T09:12:26;22.90;99.90
4687;DHT22;2357;47.316;-1.348;2022-09-06T09:15:02;22.90;99.90
4687;DHT22;2357;47.316;-1.348;2022-09-06T09:17:31;22.80;99.90
4687;DHT22;2357;47.316;-1.348;2022-09-06T09:19:57;22.90;99.90
4687;DHT22;2357;47.316;-1.348;2022-09-06T09:22:23;23.10;99.90
4687;DHT22;2357;47.316;-1.348;2022-09-06T09:24:50;23.10;99.90
4687;DHT22;2357;47.316;-1.348;2022-09-06T09:27:24;23.10;99.90
4687;DHT22;2357;47.316;-1.348;2022-09-06T09:32:38;23.00;99.90
4687;DHT22;2357;47.316;-1.348;2022-09-06T09:35:29;22.90;99.90
4687;DHT22;2357;47.316;-1.348;2022-09-06T09:40:38;22.80;99.90
4687;DHT22;2357;47.316;-1.348;2022-09-06T09:43:27;22.80;99.90
4687;DHT22;2357;47.316;-1.348;2022-09-06T09:49:09;22.60;99.90
4687;DHT22;2357;47.316;-1.348;2022-09-06T09:51:41;22.70;99.90
4687;DHT22;2357;47.316;-1.348;2022-09-06T09:54:09;22.60;99.90
4687;DHT22;2357;47.316;-1.348;2022-09-06T09:56:48;22.60;99.90
4687;DHT22;2357;47.316;-1.348;2022-09-06T09:59:29;22.50;99.90
4687;DHT22;2357;47.316;-1.348;2022-09-06T10:01:58;22.40;99.90
4687;DHT22;2357;47.316;-1.348;2022-09-06T10:04:37;22.20;99.90
4687;DHT22;2357;47.316;-1.348;2022-09-06T10:07:22;22.20;99.90
4687;DHT22;2357;47.316;-1.348;2022-09-06T10:10:19;22.20;99.90
4687;DHT22;2357;47.316;-1.348;2022-09-06T10:12:44;22.30;99.90
4687;DHT22;2357;47.316;-1.348;2022-09-06T10:15:30;22.40;99.90
4687;DHT22;2357;47.316;-1.348;2022-09-06T10:17:57;22.50;99.90
4687;DHT22;2357;47.316;-1.348;2022-09-06T10:20:32;22.50;99.90
4687;DHT22;2357;47.316;-1.348;2022-09-06T10:36:52;22.20;99.90
4687;DHT22;2357;47.316;-1.348;2022-09-06T10:39:29;22.20;99.90
4687;DHT22;2357;47.316;-1.348;2022-09-06T10:42:28;22.30;99.90
4687;DHT22;2357;47.316;-1.348;2022-09-06T10:48:02;22.40;99.90
4687;DHT22;2357;47.316;-1.348;2022-09-06T10:50:37;22.30;99.90
4687;DHT22;2357;47.316;-1.348;2022-09-06T10:53:11;22.20;99.90
4687;DHT22;2357;47.316;-1.348;2022-09-06T10:55:39;21.90;99.90
4687;DHT22;2357;47.316;-1.348;2022-09-06T10:58:05;21.70;99.90
4687;DHT22;2357;47.316;-1.348;2022-09-06T11:00:38;21.60;99.90
4687;DHT22;2357;47.316;-1.348;2022-09-06T11:03:10;21.50;99.90
4687;DHT22;2357;47.316;-1.348;2022-09-06T11:05:46;21.50;99.90
4687;DHT22;2357;47.316;-1.348;2022-09-06T11:10:47;21.50;99.90
4687;DHT22;2357;47.316;-1.348;2022-09-06T11:13:18;21.40;99.90
4687;DHT22;2357;47.316;-1.348;2022-09-06T11:24:21;21.20;99.90
4687;DHT22;2357;47.316;-1.348;2022-09-06T11:27:10;21.30;99.90
4687;DHT22;2357;47.316;-1.348;2022-09-06T11:29:44;21.30;99.90
4687;DHT22;2357;47.316;-1.348;2022-09-06T11:32:39;21.40;99.90
4687;DHT22;2357;47.316;-1.348;2022-09-06T11:35:07;21.40;99.90
4687;DHT22;2357;47.316;-1.348;2022-09-06T11:37:38;21.50;99.90
4687;DHT22;2357;47.316;-1.348;2022-09-06T11:51:08;22.20;99.90
4687;DHT22;2357;47.316;-1.348;2022-09-06T11:56:31;22.60;99.90
4687;DHT22;2357;47.316;-1.348;2022-09-06T11:59:05;22.90;99.90
4687;DHT22;2357;47.316;-1.348;2022-09-06T12:01:35;23.00;99.90
4687;DHT22;2357;47.316;-1.348;2022-09-06T12:04:03;22.80;99.90
4687;DHT22;2357;47.316;-1.348;2022-09-06T12:09:00;22.70;99.90
4687;DHT22;2357;47.316;-1.348;2022-09-06T12:25:00;22.40;99.90
4687;DHT22;2357;47.316;-1.348;2022-09-06T12:27:30;22.40;99.90
4687;DHT22;2357;47.316;-1.348;2022-09-06T12:30:02;22.30;99.90
4687;DHT22;2357;47.316;-1.348;2022-09-06T12:32:33;22.40;99.90
4687;DHT22;2357;47.316;-1.348;2022-09-06T12:35:01;22.40;99.90
4687;DHT22;2357;47.316;-1.348;2022-09-06T12:37:37;22.40;99.90
4687;DHT22;2357;47.316;-1.348;2022-09-06T12:40:13;22.30;99.90
4687;DHT22;2357;47.316;-1.348;2022-09-06T12:42:47;22.20;99.90
4687;DHT22;2357;47.316;-1.348;2022-09-06T12:45:14;22.10;99.90
4687;DHT22;2357;47.316;-1.348;2022-09-06T12:47:40;22.10;99.90
4687;DHT22;2357;47.316;-1.348;2022-09-06T12:50:24;22.10;99.90
4687;DHT22;2357;47.316;-1.348;2022-09-06T12:52:55;22.20;99.90
4687;DHT22;2357;47.316;-1.348;2022-09-06T12:57:53;22.20;99.90
4687;DHT22;2357;47.316;-1.348;2022-09-06T13:00:20;22.30;99.90
4687;DHT22;2357;47.316;-1.348;2022-09-06T13:05:17;22.40;99.90
4687;DHT22;2357;47.316;-1.348;2022-09-06T13:07:48;22.40;99.90
4687;DHT22;2357;47.316;-1.348;2022-09-06T13:10:17;22.30;99.90
4687;DHT22;2357;47.316;-1.348;2022-09-06T13:12:45;22.20;99.90
4687;DHT22;2357;47.316;-1.348;2022-09-06T13:15:17;22.30;99.90
4687;DHT22;2357;47.316;-1.348;2022-09-06T13:17:46;22.30;99.90
4687;DHT22;2357;47.316;-1.348;2022-09-06T13:20:15;22.30;99.90
4687;DHT22;2357;47.316;-1.348;2022-09-06T13:22:48;22.30;99.90
4687;DHT22;2357;47.316;-1.348;2022-09-06T13:27:48;22.10;99.90
4687;DHT22;2357;47.316;-1.348;2022-09-06T13:30:42;22.20;99.90
4687;DHT22;2357;47.316;-1.348;2022-09-06T13:33:23;22.20;99.90
4687;DHT22;2357;47.316;-1.348;2022-09-06T13:36:03;22.30;99.90
4687;DHT22;2357;47.316;-1.348;2022-09-06T13:46:27;22.60;99.90
4687;DHT22;2357;47.316;-1.348;2022-09-06T13:48:54;22.70;99.90
4687;DHT22;2357;47.316;-1.348;2022-09-06T13:51:20;22.70;99.90
4687;DHT22;2357;47.316;-1.348;2022-09-06T13:53:46;22.70;99.90
4687;DHT22;2357;47.316;-1.348;2022-09-06T13:56:11;22.70;99.90
4687;DHT22;2357;47.316;-1.348;2022-09-06T13:58:37;22.70;99.90
4687;DHT22;2357;47.316;-1.348;2022-09-06T14:01:04;22.60;99.90
4687;DHT22;2357;47.316;-1.348;2022-09-06T14:03:33;22.60;99.90
4687;DHT22;2357;47.316;-1.348;2022-09-06T14:05:59;22.40;99.90
4687;DHT22;2357;47.316;-1.348;2022-09-06T14:08:28;22.50;99.90
4687;DHT22;2357;47.316;-1.348;2022-09-06T14:10:55;22.40;99.90
4687;DHT22;2357;47.316;-1.348;2022-09-06T14:13:20;22.20;99.90
4687;DHT22;2357;47.316;-1.348;2022-09-06T14:15:47;22.20;99.90
4687;DHT22;2357;47.316;-1.348;2022-09-06T14:18:14;22.20;99.90
4687;DHT22;2357;47.316;-1.348;2022-09-06T14:20:40;22.30;99.90
4687;DHT22;2357;47.316;-1.348;2022-09-06T14:23:07;22.30;99.90
4687;DHT22;2357;47.316;-1.348;2022-09-06T14:25:36;22.30;99.90
4687;DHT22;2357;47.316;-1.348;2022-09-06T14:28:04;22.30;99.90
4687;DHT22;2357;47.316;-1.348;2022-09-06T14:30:30;22.30;99.90
4687;DHT22;2357;47.316;-1.348;2022-09-06T14:32:56;22.40;99.90
4687;DHT22;2357;47.316;-1.348;2022-09-06T14:35:22;22.40;99.90
4687;DHT22;2357;47.316;-1.348;2022-09-06T14:37:47;22.40;99.90
4687;DHT22;2357;47.316;-1.348;2022-09-06T14:40:13;22.50;99.90
4687;DHT22;2357;47.316;-1.348;2022-09-06T14:42:40;22.30;99.90
4687;DHT22;2357;47.316;-1.348;2022-09-06T14:45:06;22.20;99.90
4687;DHT22;2357;47.316;-1.348;2022-09-06T14:47:31;22.00;99.90
4687;DHT22;2357;47.316;-1.348;2022-09-06T14:49:58;21.90;99.90
4687;DHT22;2357;47.316;-1.348;2022-09-06T14:52:23;22.00;99.90
4687;DHT22;2357;47.316;-1.348;2022-09-06T14:54:49;21.90;99.90
4687;DHT22;2357;47.316;-1.348;2022-09-06T14:57:15;21.90;99.90
4687;DHT22;2357;47.316;-1.348;2022-09-06T14:59:40;21.90;99.90
4687;DHT22;2357;47.316;-1.348;2022-09-06T15:02:06;21.90;99.90
4687;DHT22;2357;47.316;-1.348;2022-09-06T15:04:32;22.00;99.90
4687;DHT22;2357;47.316;-1.348;2022-09-06T15:06:58;22.10;99.90
4687;DHT22;2357;47.316;-1.348;2022-09-06T15:09:25;22.10;99.90
4687;DHT22;2357;47.316;-1.348;2022-09-06T15:11:52;22.20;99.90
4687;DHT22;2357;47.316;-1.348;2022-09-06T15:14:23;22.20;99.90
4687;DHT22;2357;47.316;-1.348;2022-09-06T15:16:50;22.40;99.90
4687;DHT22;2357;47.316;-1.348;2022-09-06T15:19:18;22.60;99.90
4687;DHT22;2357;47.316;-1.348;2022-09-06T15:21:44;22.60;99.90
4687;DHT22;2357;47.316;-1.348;2022-09-06T15:24:12;22.60;99.90
4687;DHT22;2357;47.316;-1.348;2022-09-06T15:26:38;23.00;99.90
4687;DHT22;2357;47.316;-1.348;2022-09-06T15:29:03;23.50;99.90
4687;DHT22;2357;47.316;-1.348;2022-09-06T15:31:32;23.80;99.90
4687;DHT22;2357;47.316;-1.348;2022-09-06T15:33:58;23.40;99.90
4687;DHT22;2357;47.316;-1.348;2022-09-06T15:36:26;23.60;99.90
4687;DHT22;2357;47.316;-1.348;2022-09-06T15:38:52;23.80;99.90
4687;DHT22;2357;47.316;-1.348;2022-09-06T15:41:26;24.00;99.90
4687;DHT22;2357;47.316;-1.348;2022-09-06T15:43:55;23.70;99.90
4687;DHT22;2357;47.316;-1.348;2022-09-06T15:49:10;23.30;99.90
4687;DHT22;2357;47.316;-1.348;2022-09-06T15:51:37;23.60;99.90
4687;DHT22;2357;47.316;-1.348;2022-09-06T15:54:05;23.90;99.90
4687;DHT22;2357;47.316;-1.348;2022-09-06T15:56:31;24.30;99.90
4687;DHT22;2357;47.316;-1.348;2022-09-06T15:58:57;25.30;99.90
4687;DHT22;2357;47.316;-1.348;2022-09-06T16:01:25;28.90;99.90
4687;DHT22;2357;47.316;-1.348;2022-09-06T16:03:56;29.80;99.90
4687;DHT22;2357;47.316;-1.348;2022-09-06T16:06:38;31.70;99.90
4687;DHT22;2357;47.316;-1.348;2022-09-06T16:09:09;29.90;99.90
4687;DHT22;2357;47.316;-1.348;2022-09-06T16:11:36;27.90;99.90
4687;DHT22;2357;47.316;-1.348;2022-09-06T16:14:08;26.60;99.90
4687;DHT22;2357;47.316;-1.348;2022-09-06T16:16:34;25.40;99.90
4687;DHT22;2357;47.316;-1.348;2022-09-06T16:19:01;24.80;99.90
4687;DHT22;2357;47.316;-1.348;2022-09-06T16:21:29;24.20;99.90
4687;DHT22;2357;47.316;-1.348;2022-09-06T16:24:05;23.80;99.90
4687;DHT22;2357;47.316;-1.348;2022-09-06T16:26:34;23.50;99.90
4687;DHT22;2357;47.316;-1.348;2022-09-06T16:29:02;23.60;99.90
4687;DHT22;2357;47.316;-1.348;2022-09-06T16:31:28;23.30;99.90
4687;DHT22;2357;47.316;-1.348;2022-09-06T16:33:55;23.30;99.90
4687;DHT22;2357;47.316;-1.348;2022-09-06T16:36:22;23.30;99.90
4687;DHT22;2357;47.316;-1.348;2022-09-06T16:38:48;23.30;99.90
4687;DHT22;2357;47.316;-1.348;2022-09-06T16:41:39;23.50;99.90
4687;DHT22;2357;47.316;-1.348;2022-09-06T16:44:09;23.60;99.90
4687;DHT22;2357;47.316;-1.348;2022-09-06T16:46:42;23.50;99.90
4687;DHT22;2357;47.316;-1.348;2022-09-06T16:49:08;23.60;99.90
4687;DHT22;2357;47.316;-1.348;2022-09-06T16:51:35;23.70;99.90
4687;DHT22;2357;47.316;-1.348;2022-09-06T16:54:01;23.50;99.90
4687;DHT22;2357;47.316;-1.348;2022-09-06T16:56:30;23.30;99.90
4687;DHT22;2357;47.316;-1.348;2022-09-06T16:59:00;23.20;99.90
4687;DHT22;2357;47.316;-1.348;2022-09-06T17:01:27;23.10;99.90
4687;DHT22;2357;47.316;-1.348;2022-09-06T17:03:54;23.10;99.90
4687;DHT22;2357;47.316;-1.348;2022-09-06T17:06:21;23.00;99.90
4687;DHT22;2357;47.316;-1.348;2022-09-06T17:08:47;23.00;99.90
4687;DHT22;2357;47.316;-1.348;2022-09-06T17:11:23;22.90;99.90
4687;DHT22;2357;47.316;-1.348;2022-09-06T17:13:51;22.90;99.90
4687;DHT22;2357;47.316;-1.348;2022-09-06T17:16:18;22.80;99.90
4687;DHT22;2357;47.316;-1.348;2022-09-06T17:19:04;22.70;99.90
4687;DHT22;2357;47.316;-1.348;2022-09-06T17:21:30;22.70;99.90
4687;DHT22;2357;47.316;-1.348;2022-09-06T17:23:57;22.60;99.90
4687;DHT22;2357;47.316;-1.348;2022-09-06T17:26:26;22.50;99.90
4687;DHT22;2357;47.316;-1.348;2022-09-06T17:28:52;22.40;99.90
4687;DHT22;2357;47.316;-1.348;2022-09-06T17:31:19;22.40;99.90
4687;DHT22;2357;47.316;-1.348;2022-09-06T17:33:46;22.30;99.90
4687;DHT22;2357;47.316;-1.348;2022-09-06T17:36:16;22.20;99.90
4687;DHT22;2357;47.316;-1.348;2022-09-06T17:38:44;22.20;99.90
4687;DHT22;2357;47.316;-1.348;2022-09-06T17:43:59;22.10;99.90
4687;DHT22;2357;47.316;-1.348;2022-09-06T17:46:25;22.10;99.90
4687;DHT22;2357;47.316;-1.348;2022-09-06T17:48:51;22.10;99.90
4687;DHT22;2357;47.316;-1.348;2022-09-06T17:51:17;21.80;99.90
4687;DHT22;2357;47.316;-1.348;2022-09-06T17:53:43;22.00;99.90
4687;DHT22;2357;47.316;-1.348;2022-09-06T17:56:13;22.10;99.90
4687;DHT22;2357;47.316;-1.348;2022-09-06T17:58:40;21.90;99.90
4687;DHT22;2357;47.316;-1.348;2022-09-06T18:01:09;22.00;99.90
4687;DHT22;2357;47.316;-1.348;2022-09-06T18:03:38;22.00;99.90
4687;DHT22;2357;47.316;-1.348;2022-09-06T18:06:08;22.00;99.90
4687;DHT22;2357;47.316;-1.348;2022-09-06T18:08:35;22.00;99.90